Chesterfield, New Jersey
Current Conditions -  °F | °C
As of 3:58 AM on Thursday 23 Oct 2014 (Local Time) from KWRI Reporting Station
Overcast Overcast  
Wind Chill: 51°   Ceiling: 2100
Heat Index: 51°   Visibility: 10mi
Dew Point: 47°   Wind: 16mph
Humidity: 86%   Direction: 340°NNW
Pressure: 29.69"   Gusts: NA
Location:  40.144°N, 74.6589°W
Report Text: KWRI 230758Z AUTO 34014KT 10SM OVC021 11/09 A2969 RMK AO2 SLP057 T01070085
Loading
Personal Weather Stations






























Interactive Weather Map
Tropical Storm Tracking
New forecast layout! Learn more

10-Day Weather Forecast

Advertisements
Track Severe Weather on mobile